Time;durP1;ratioP1;P1;durP2;ratioP2;P2;SDS_P1;SDS_P2;PMS_P1;PMS_P2;Temp;Humidity;BMP_temperature;BMP_pressure;BME280_temperature;BME280_humidity;BME280_pressure;Samples;Min_cycle;Max_cycle;Signal;HPM_P1;HPM_P2
2024/01/13 00:00:31;;;;;;;14.57;4.13;;;4.20;99.90;;;;;;5110829;27;20425;-92
2024/01/13 00:02:57;;;;;;;12.27;3.65;;;4.00;99.90;;;;;;5109294;28;20403;-92
2024/01/13 00:05:22;;;;;;;13.17;3.77;;;4.30;99.90;;;;;;5127857;27;20830;-91
2024/01/13 00:07:48;;;;;;;16.35;4.03;;;4.10;99.90;;;;;;5109507;27;20405;-92
2024/01/13 00:10:14;;;;;;;15.02;4.05;;;4.10;99.90;;;;;;5111010;28;20394;-91
2024/01/13 00:12:39;;;;;;;15.57;3.95;;;4.00;99.90;;;;;;5109669;28;20893;-92
2024/01/13 00:15:06;;;;;;;16.73;4.63;;;4.30;99.90;;;;;;5125435;27;20413;-91
2024/01/13 00:17:31;;;;;;;16.20;4.72;;;4.10;99.90;;;;;;5119927;27;20422;-92
2024/01/13 00:19:57;;;;;;;17.25;4.47;;;3.90;99.90;;;;;;5109606;28;20401;-92
2024/01/13 00:22:23;;;;;;;19.00;4.97;;;4.20;99.90;;;;;;5110126;27;20435;-90
2024/01/13 00:24:48;;;;;;;16.93;4.47;;;4.20;99.90;;;;;;5109428;28;20410;-90
2024/01/13 00:27:14;;;;;;;19.55;5.32;;;4.10;99.90;;;;;;5111104;28;20427;-91
2024/01/13 00:29:40;;;;;;;19.50;5.32;;;4.10;99.90;;;;;;5108991;28;20467;-91
2024/01/13 00:32:05;;;;;;;20.83;4.85;;;4.00;99.90;;;;;;5110338;28;20439;-91
2024/01/13 00:34:31;;;;;;;19.17;5.27;;;4.20;99.90;;;;;;5109825;28;20407;-91
2024/01/13 00:36:57;;;;;;;17.60;5.13;;;4.00;99.90;;;;;;5109883;28;20423;-92
2024/01/13 00:39:22;;;;;;;14.75;5.10;;;4.30;99.90;;;;;;5110154;28;20410;-92
2024/01/13 00:41:48;;;;;;;22.05;6.38;;;4.10;99.90;;;;;;5109322;28;20409;-93
2024/01/13 00:44:14;;;;;;;23.42;6.10;;;4.20;99.90;;;;;;5110737;28;20405;-91
2024/01/13 00:46:39;;;;;;;20.87;6.47;;;4.10;99.90;;;;;;5109531;27;20399;-91
2024/01/13 00:49:05;;;;;;;22.20;6.50;;;4.10;99.90;;;;;;5110553;28;20493;-91
2024/01/13 00:51:33;;;;;;;26.80;7.00;;;4.00;99.90;;;;;;5109353;27;20401;-90
2024/01/13 00:53:59;;;;;;;22.95;6.80;;;4.00;99.90;;;;;;5109889;28;20394;-91
2024/01/13 00:56:25;;;;;;;17.13;6.10;;;4.00;99.90;;;;;;5110050;28;20818;-91
2024/01/13 00:58:51;;;;;;;23.27;6.97;;;4.00;99.90;;;;;;5109349;28;20391;-90
2024/01/13 01:01:17;;;;;;;18.63;6.57;;;4.10;99.90;;;;;;5110137;28;20491;-92
2024/01/13 01:03:43;;;;;;;23.17;6.67;;;4.10;99.90;;;;;;5109384;28;20414;-90
2024/01/13 01:06:09;;;;;;;14.18;5.50;;;3.90;99.90;;;;;;5127492;27;20960;-91
2024/01/13 01:08:34;;;;;;;16.97;5.30;;;4.00;99.90;;;;;;5109352;28;20410;-91
2024/01/13 01:11:00;;;;;;;20.17;6.28;;;4.00;99.90;;;;;;5111896;27;20475;-92
2024/01/13 01:13:26;;;;;;;15.90;5.95;;;3.90;99.90;;;;;;5113484;27;20394;-91
2024/01/13 01:15:51;;;;;;;18.30;5.33;;;3.90;99.90;;;;;;5113705;27;20514;-92
2024/01/13 01:18:17;;;;;;;17.23;5.53;;;3.90;99.90;;;;;;5113522;27;20928;-93
2024/01/13 01:20:43;;;;;;;19.05;5.82;;;3.90;99.90;;;;;;5113211;27;20414;-90
2024/01/13 01:23:08;;;;;;;15.60;5.47;;;4.00;99.90;;;;;;5113316;27;20410;-91
2024/01/13 01:25:34;;;;;;;19.35;5.22;;;3.90;99.90;;;;;;5113023;27;20439;-89
2024/01/13 01:28:00;;;;;;;18.03;5.33;;;4.00;99.90;;;;;;5113672;27;20787;-91
2024/01/13 01:30:27;;;;;;;12.48;4.32;;;4.00;99.90;;;;;;5112292;27;20437;-91
2024/01/13 01:32:53;;;;;;;16.08;4.93;;;4.10;99.90;;;;;;5113147;27;20758;-91
2024/01/13 01:35:19;;;;;;;14.82;4.38;;;4.00;99.90;;;;;;5113429;27;20482;-90
2024/01/13 01:37:44;;;;;;;17.70;4.50;;;3.90;99.90;;;;;;5112514;27;20419;-90
2024/01/13 01:40:14;;;;;;;17.17;3.87;;;4.00;99.90;;;;;;5113599;27;20407;-91
2024/01/13 01:42:40;;;;;;;14.80;3.80;;;4.20;99.90;;;;;;5112043;27;20398;-89
2024/01/13 01:45:07;;;;;;;15.10;3.95;;;4.00;99.90;;;;;;5113480;27;20440;-90
2024/01/13 01:47:33;;;;;;;14.13;2.95;;;4.00;99.90;;;;;;5112596;27;20893;-91
2024/01/13 01:49:59;;;;;;;14.52;3.55;;;4.00;99.90;;;;;;5112980;27;20391;-91
2024/01/13 01:52:26;;;;;;;14.23;4.00;;;4.40;99.90;;;;;;5113047;27;20655;-90
2024/01/13 01:54:52;;;;;;;16.55;4.10;;;4.10;99.90;;;;;;5111949;27;20417;-92
2024/01/13 01:57:21;;;;;;;15.00;4.05;;;4.00;99.90;;;;;;5129983;27;20514;-91
2024/01/13 01:59:46;;;;;;;17.30;4.23;;;4.10;99.90;;;;;;5111642;27;20424;-91
2024/01/13 02:02:12;;;;;;;14.50;3.43;;;4.00;99.90;;;;;;5113546;27;20400;-91
2024/01/13 02:04:38;;;;;;;14.35;4.18;;;4.20;99.90;;;;;;5111766;27;20476;-91
2024/01/13 02:07:04;;;;;;;18.83;4.30;;;3.90;99.90;;;;;;5112766;27;20417;-90
2024/01/13 02:09:31;;;;;;;12.77;3.90;;;4.00;99.90;;;;;;5112445;27;20483;-93
2024/01/13 02:11:57;;;;;;;15.35;3.63;;;4.00;99.90;;;;;;5112300;27;20971;-91
2024/01/13 02:14:23;;;;;;;14.25;3.60;;;4.00;99.90;;;;;;5129530;27;20429;-90
2024/01/13 02:16:49;;;;;;;10.67;2.60;;;3.90;99.90;;;;;;5111713;27;20423;-91
2024/01/13 02:19:15;;;;;;;13.43;2.90;;;3.90;99.90;;;;;;5112801;27;20784;-92
2024/01/13 02:21:40;;;;;;;9.33;2.60;;;4.10;99.90;;;;;;5110981;28;20395;-91
2024/01/13 02:24:06;;;;;;;9.80;2.80;;;3.90;99.90;;;;;;5112907;27;20757;-89
2024/01/13 02:26:34;;;;;;;11.55;2.30;;;3.90;99.90;;;;;;5111607;27;20481;-91
2024/01/13 02:29:00;;;;;;;12.48;2.97;;;4.10;99.90;;;;;;5111670;27;20391;-90
2024/01/13 02:31:25;;;;;;;12.13;2.67;;;3.90;99.90;;;;;;5112182;27;20397;-91
2024/01/13 02:33:51;;;;;;;9.33;2.47;;;4.30;99.90;;;;;;5128496;27;20479;-91
2024/01/13 02:36:17;;;;;;;7.73;2.50;;;3.90;99.90;;;;;;5111834;27;20430;-91
2024/01/13 02:38:43;;;;;;;11.10;2.03;;;3.90;99.90;;;;;;5111690;27;20419;-90
2024/01/13 02:41:08;;;;;;;8.70;2.20;;;3.90;99.90;;;;;;5129710;27;20912;-92
2024/01/13 02:43:35;;;;;;;10.02;2.22;;;4.00;99.90;;;;;;5128453;27;20398;-90
2024/01/13 02:46:00;;;;;;;9.40;2.47;;;4.00;99.90;;;;;;5112152;27;20396;-91
2024/01/13 02:48:30;;;;;;;10.77;2.47;;;3.90;99.90;;;;;;5128621;27;20658;-91
2024/01/13 02:51:00;;;;;;;9.32;2.30;;;3.90;99.90;;;;;;5111508;27;20399;-92
2024/01/13 02:53:26;;;;;;;10.55;2.38;;;3.90;99.90;;;;;;5112092;27;20399;-93
2024/01/13 02:55:52;;;;;;;7.90;2.30;;;3.80;99.90;;;;;;5128108;27;20405;-91
2024/01/13 02:58:18;;;;;;;9.43;2.40;;;3.90;99.90;;;;;;5129997;27;20393;-89
2024/01/13 03:00:43;;;;;;;10.30;2.57;;;3.90;99.90;;;;;;5118491;27;21043;-90
2024/01/13 03:03:09;;;;;;;11.68;2.50;;;3.90;99.90;;;;;;5111875;27;20436;-90
2024/01/13 03:05:35;;;;;;;10.05;2.83;;;4.20;99.90;;;;;;5114473;27;20481;-90
2024/01/13 03:08:00;;;;;;;13.00;3.40;;;3.90;99.90;;;;;;5131726;27;20397;-90
2024/01/13 03:10:26;;;;;;;10.67;2.90;;;4.00;99.90;;;;;;5132032;27;20397;-90
2024/01/13 03:12:52;;;;;;;15.23;3.65;;;3.90;99.90;;;;;;5148825;27;20424;-91
2024/01/13 03:15:18;;;;;;;10.38;3.15;;;4.10;99.90;;;;;;5132432;27;20397;-90
2024/01/13 03:17:43;;;;;;;10.68;3.10;;;4.00;99.90;;;;;;5148499;27;20419;-90
2024/01/13 03:20:10;;;;;;;9.57;3.13;;;3.90;99.90;;;;;;5132339;27;20441;-89
2024/01/13 03:22:35;;;;;;;12.82;3.47;;;4.00;99.90;;;;;;5131453;27;20405;-90
2024/01/13 03:25:01;;;;;;;14.30;4.03;;;4.10;99.90;;;;;;5131777;27;20901;-89
2024/01/13 03:27:27;;;;;;;14.90;4.13;;;4.00;99.90;;;;;;5148563;27;20433;-90
2024/01/13 03:29:52;;;;;;;11.97;3.80;;;4.00;99.90;;;;;;5131407;27;20404;-90
2024/01/13 03:32:18;;;;;;;11.70;3.83;;;4.00;99.90;;;;;;5148387;27;20397;-90
2024/01/13 03:34:44;;;;;;;15.43;4.63;;;4.00;99.90;;;;;;5127255;27;20442;-91
2024/01/13 03:37:09;;;;;;;12.82;3.70;;;4.00;99.90;;;;;;5128067;27;20791;-90
2024/01/13 03:39:35;;;;;;;19.10;4.70;;;4.00;99.90;;;;;;5130417;27;20389;-90
2024/01/13 03:42:00;;;;;;;13.30;4.10;;;3.90;99.90;;;;;;5131792;27;20561;-91
2024/01/13 03:44:26;;;;;;;13.57;4.15;;;4.00;99.90;;;;;;5148384;27;20405;-91
2024/01/13 03:46:52;;;;;;;13.90;4.60;;;4.00;99.90;;;;;;5130775;27;20408;-90
2024/01/13 03:49:17;;;;;;;14.63;4.10;;;4.00;99.90;;;;;;5131568;27;20557;-90
2024/01/13 03:51:43;;;;;;;12.37;3.90;;;4.00;99.90;;;;;;5131031;27;20494;-90
2024/01/13 03:54:09;;;;;;;12.40;4.38;;;4.00;99.90;;;;;;5131526;27;20405;-88
2024/01/13 03:56:34;;;;;;;15.60;4.57;;;4.10;99.90;;;;;;5130470;27;20424;-90
2024/01/13 03:59:00;;;;;;;11.63;3.97;;;4.00;99.90;;;;;;5131725;27;20401;-92
2024/01/13 04:01:25;;;;;;;11.80;4.03;;;4.10;99.90;;;;;;5130645;27;20403;-90
2024/01/13 04:03:52;;;;;;;17.33;4.38;;;4.00;99.90;;;;;;5124140;27;20468;-91
2024/01/13 04:06:17;;;;;;;13.77;4.57;;;4.00;99.90;;;;;;5110515;27;20889;-90
2024/01/13 04:08:44;;;;;;;17.47;4.93;;;4.00;99.90;;;;;;5110100;28;20407;-90
2024/01/13 04:11:10;;;;;;;17.08;4.68;;;4.00;99.90;;;;;;5127938;27;20422;-89
2024/01/13 04:13:36;;;;;;;18.20;5.13;;;4.50;99.90;;;;;;5109976;27;20399;-89
2024/01/13 04:16:02;;;;;;;15.77;4.57;;;4.00;99.90;;;;;;5111027;28;20545;-90
2024/01/13 04:18:28;;;;;;;13.00;4.30;;;4.00;99.90;;;;;;5109847;27;20426;-90
2024/01/13 04:20:54;;;;;;;12.33;4.30;;;4.00;99.90;;;;;;5110872;28;20411;-90
2024/01/13 04:23:19;;;;;;;16.87;4.33;;;4.00;99.90;;;;;;5128312;27;20500;-90
2024/01/13 04:25:45;;;;;;;14.73;4.18;;;4.10;99.90;;;;;;5130643;27;20413;-90
2024/01/13 04:28:11;;;;;;;12.77;3.83;;;4.00;99.90;;;;;;5148001;27;20487;-90
2024/01/13 04:30:36;;;;;;;12.63;4.13;;;4.20;99.90;;;;;;5147409;27;20480;-90
2024/01/13 04:33:02;;;;;;;13.27;3.97;;;4.00;99.90;;;;;;5131083;27;20429;-89
2024/01/13 04:35:29;;;;;;;15.07;3.33;;;4.00;99.90;;;;;;5129949;27;20872;-89
2024/01/13 04:37:55;;;;;;;12.18;3.83;;;4.00;99.90;;;;;;5131071;27;20421;-90
2024/01/13 04:40:21;;;;;;;12.48;3.30;;;4.00;99.90;;;;;;5121255;28;20915;-90
2024/01/13 04:42:46;;;;;;;10.57;3.15;;;4.00;99.90;;;;;;5114511;27;20414;-90
2024/01/13 04:45:12;;;;;;;11.73;2.83;;;4.00;99.90;;;;;;5113440;27;20399;-91
2024/01/13 04:47:38;;;;;;;9.33;2.60;;;3.90;99.90;;;;;;5122681;27;20930;-90
2024/01/13 04:50:04;;;;;;;11.17;2.73;;;3.90;99.90;;;;;;5112329;27;20403;-92
2024/01/13 04:52:30;;;;;;;13.27;2.90;;;3.90;99.90;;;;;;5129411;27;20462;-90
2024/01/13 04:54:55;;;;;;;13.35;2.80;;;3.90;99.90;;;;;;5113082;27;20395;-91
2024/01/13 04:57:21;;;;;;;9.27;2.97;;;3.90;99.90;;;;;;5111730;27;20495;-91
2024/01/13 04:59:47;;;;;;;9.10;2.77;;;3.90;99.90;;;;;;5113646;27;20800;-90
2024/01/13 05:02:13;;;;;;;12.13;3.38;;;4.00;99.90;;;;;;5113429;27;20765;-90
2024/01/13 05:04:39;;;;;;;11.23;3.42;;;4.00;99.90;;;;;;5113053;27;20412;-90
2024/01/13 05:07:05;;;;;;;13.77;4.10;;;4.20;99.90;;;;;;5113608;27;20415;-90
2024/01/13 05:09:31;;;;;;;13.55;4.38;;;4.10;99.90;;;;;;5113157;27;20395;-89
2024/01/13 05:11:56;;;;;;;12.07;4.10;;;3.90;99.90;;;;;;5113060;27;20753;-89
2024/01/13 05:14:22;;;;;;;11.75;3.80;;;4.00;99.90;;;;;;5112915;27;20391;-90
2024/01/13 05:16:48;;;;;;;12.90;4.03;;;4.20;99.90;;;;;;5130849;27;20418;-90
2024/01/13 05:19:13;;;;;;;11.53;3.20;;;4.00;99.90;;;;;;5112236;27;20723;-90
2024/01/13 05:21:39;;;;;;;8.83;2.70;;;4.00;99.90;;;;;;5113383;27;20532;-89
2024/01/13 05:24:05;;;;;;;7.50;2.55;;;4.20;99.90;;;;;;5112817;27;20463;-89
2024/01/13 05:26:31;;;;;;;10.10;3.22;;;4.20;99.90;;;;;;5112326;27;20537;-90
2024/01/13 05:28:56;;;;;;;9.68;3.00;;;4.00;99.90;;;;;;5113469;27;20424;-90
2024/01/13 05:31:22;;;;;;;9.33;2.63;;;4.10;99.90;;;;;;5112591;27;20403;-89
2024/01/13 05:33:48;;;;;;;10.43;2.50;;;4.00;99.90;;;;;;5114333;27;20411;-90
2024/01/13 05:36:15;;;;;;;7.93;2.30;;;4.00;99.90;;;;;;5130243;27;20417;-89
2024/01/13 05:38:41;;;;;;;6.40;2.00;;;4.00;99.90;;;;;;5130109;27;20434;-90
2024/01/13 05:41:07;;;;;;;7.90;2.13;;;4.00;99.90;;;;;;5111707;27;20439;-89
2024/01/13 05:43:33;;;;;;;6.45;2.00;;;4.00;99.90;;;;;;5129517;27;21072;-90
2024/01/13 05:45:59;;;;;;;7.82;1.90;;;4.00;99.90;;;;;;5115941;27;20457;-90
2024/01/13 05:48:24;;;;;;;4.90;1.30;;;4.00;99.90;;;;;;5132562;27;20824;-89
2024/01/13 05:50:50;;;;;;;8.03;1.60;;;4.00;99.90;;;;;;5113862;27;20409;-89
2024/01/13 05:53:15;;;;;;;6.50;0.95;;;4.00;99.90;;;;;;5111900;27;20406;-88
2024/01/13 05:55:42;;;;;;;7.17;1.00;;;4.00;99.90;;;;;;5112997;27;20395;-89
2024/01/13 05:58:08;;;;;;;5.10;0.88;;;4.10;99.90;;;;;;5111741;27;20411;-90
2024/01/13 06:00:33;;;;;;;4.38;0.90;;;4.00;99.90;;;;;;5112387;27;20406;-89
2024/01/13 06:02:59;;;;;;;5.78;0.95;;;4.10;99.90;;;;;;5111999;27;20419;-88
2024/01/13 06:05:25;;;;;;;5.47;0.90;;;4.00;99.90;;;;;;5111091;27;20879;-89
2024/01/13 06:07:50;;;;;;;5.37;1.00;;;4.00;99.90;;;;;;5112481;27;20422;-88
2024/01/13 06:10:19;;;;;;;5.10;0.75;;;4.00;99.90;;;;;;5111873;27;20394;-89
2024/01/13 06:12:45;;;;;;;5.40;0.80;;;4.30;99.90;;;;;;5111777;27;20497;-90
2024/01/13 06:15:11;;;;;;;5.22;0.88;;;4.00;99.90;;;;;;5112037;27;20405;-88
2024/01/13 06:17:38;;;;;;;3.03;0.50;;;4.00;99.90;;;;;;5112280;27;20510;-89
2024/01/13 06:20:04;;;;;;;4.05;0.57;;;4.20;99.90;;;;;;5128294;27;20399;-89
2024/01/13 06:22:29;;;;;;;2.30;0.47;;;4.00;99.90;;;;;;5111641;27;20506;-89
2024/01/13 06:24:55;;;;;;;3.37;0.70;;;4.00;99.90;;;;;;5112055;27;20430;-89
2024/01/13 06:27:21;;;;;;;6.13;1.10;;;4.20;99.90;;;;;;5110962;27;20490;-88
2024/01/13 06:29:46;;;;;;;5.00;1.00;;;4.00;99.90;;;;;;5112047;27;20444;-90
2024/01/13 06:32:12;;;;;;;8.15;1.38;;;4.00;99.90;;;;;;5110368;27;20817;-89
2024/01/13 06:34:38;;;;;;;5.87;1.00;;;4.00;99.90;;;;;;5127924;27;20915;-89
2024/01/13 06:37:04;;;;;;;6.03;1.70;;;4.00;99.90;;;;;;5111332;27;20766;-88
2024/01/13 06:39:30;;;;;;;3.87;0.80;;;4.10;99.90;;;;;;5112143;27;20410;-88
2024/01/13 06:41:56;;;;;;;4.50;0.63;;;3.80;99.90;;;;;;5111499;27;20927;-92
2024/01/13 06:44:21;;;;;;;5.73;1.00;;;4.00;99.90;;;;;;5111433;27;20448;-90
2024/01/13 06:46:47;;;;;;;7.80;1.13;;;4.10;99.90;;;;;;5111455;27;20399;-89
2024/01/13 06:49:13;;;;;;;5.93;1.13;;;4.00;99.90;;;;;;5113257;27;20410;-90
2024/01/13 06:51:38;;;;;;;6.78;1.30;;;4.00;99.90;;;;;;5149753;27;20444;-92
2024/01/13 06:54:04;;;;;;;6.83;1.47;;;4.00;99.90;;;;;;5131866;27;20401;-89
2024/01/13 06:56:30;;;;;;;6.77;1.10;;;4.00;99.90;;;;;;5132328;27;20425;-90
2024/01/13 06:58:56;;;;;;;10.17;1.63;;;4.00;99.90;;;;;;5123649;27;21035;-92
2024/01/13 07:01:21;;;;;;;9.35;1.60;;;4.00;99.90;;;;;;5127670;27;20402;-91
2024/01/13 07:04:46;;;;;;;9.68;1.95;;;4.20;99.90;;;;;;5111697;27;20407;-89
2024/01/13 07:07:24;;;;;;;10.32;2.20;;;4.00;99.90;;;;;;5107687;27;20399;-88
2024/01/13 07:14:29;;;;;;;14.77;4.50;;;4.00;99.90;;;;;;5058957;28;20422;-89
2024/01/13 07:17:30;;;;;;;16.23;5.05;;;4.10;99.90;;;;;;5042299;28;20436;-89
2024/01/13 07:19:55;;;;;;;18.92;6.60;;;4.10;99.90;;;;;;5127848;27;20416;-89
2024/01/13 07:22:21;;;;;;;30.27;12.43;;;4.40;99.90;;;;;;5125761;27;20410;-89
2024/01/13 07:24:48;;;;;;;24.58;9.65;;;4.10;99.90;;;;;;5142955;27;20489;-89
2024/01/13 07:27:14;;;;;;;24.20;8.50;;;4.10;99.90;;;;;;5110541;27;20394;-91
2024/01/13 07:29:40;;;;;;;27.70;8.60;;;4.10;99.90;;;;;;5111171;27;20413;-90
2024/01/13 07:32:08;;;;;;;22.20;7.60;;;4.30;99.90;;;;;;5109844;27;20386;-90
2024/01/13 07:34:55;;;;;;;23.95;8.15;;;4.20;99.90;;;;;;5111202;27;20485;-90
2024/01/13 07:37:21;;;;;;;23.77;8.95;;;4.10;99.90;;;;;;5089965;28;20460;-90
2024/01/13 07:39:47;;;;;;;27.63;9.50;;;4.20;99.90;;;;;;5124188;27;20498;-93
2024/01/13 07:42:12;;;;;;;32.88;11.52;;;4.20;99.90;;;;;;5090078;28;20423;-91
2024/01/13 07:44:41;;;;;;;36.88;14.13;;;4.10;99.90;;;;;;5090779;28;20396;-90
2024/01/13 07:47:06;;;;;;;46.42;20.75;;;4.40;99.90;;;;;;5106113;28;20389;-90
2024/01/13 07:49:56;;;;;;;50.17;21.55;;;4.20;99.90;;;;;;5128251;27;21007;-89
2024/01/13 07:52:34;;;;;;;58.03;24.58;;;4.10;99.90;;;;;;5131996;27;20444;-91
2024/01/13 07:59:31;;;;;;;71.05;34.83;;;4.40;99.90;;;;;;5121476;27;20970;-91
2024/01/13 08:01:56;;;;;;;75.80;36.90;;;4.20;99.90;;;;;;5131517;27;20786;-90
2024/01/13 08:04:31;;;;;;;77.20;37.40;;;4.10;99.90;;;;;;5091521;27;20397;-90
2024/01/13 08:06:57;;;;;;;82.63;39.78;;;4.40;99.90;;;;;;5123476;27;20412;-92
2024/01/13 08:09:23;;;;;;;78.23;39.73;;;4.10;99.90;;;;;;5090225;28;20401;-90
2024/01/13 08:11:51;;;;;;;83.00;41.07;;;4.20;99.90;;;;;;5127147;27;20529;-91
2024/01/13 08:14:17;;;;;;;84.10;42.45;;;4.20;99.90;;;;;;5117514;27;20408;-89
2024/01/13 08:16:43;;;;;;;84.63;42.20;;;4.20;99.90;;;;;;5146680;27;20933;-90
2024/01/13 08:19:10;;;;;;;79.50;41.17;;;4.20;99.90;;;;;;5129526;27;20491;-89
2024/01/13 08:21:36;;;;;;;80.20;41.30;;;4.20;99.90;;;;;;5115434;27;20468;-91
2024/01/13 08:24:02;;;;;;;79.63;40.85;;;4.20;99.90;;;;;;5125936;27;20397;-92
2024/01/13 08:26:30;;;;;;;78.90;41.03;;;4.20;99.90;;;;;;5125712;27;20426;-91
2024/01/13 08:28:56;;;;;;;73.97;39.30;;;4.10;99.90;;;;;;5116182;27;20392;-91
2024/01/13 08:31:22;;;;;;;75.43;38.70;;;4.40;99.90;;;;;;5134244;27;20393;-90
2024/01/13 08:33:47;;;;;;;77.10;39.53;;;4.20;99.90;;;;;;5114709;27;20735;-91
2024/01/13 08:36:13;;;;;;;78.55;41.53;;;4.20;99.90;;;;;;5127714;27;20780;-89
2024/01/13 08:38:38;;;;;;;79.53;40.97;;;4.20;99.90;;;;;;5124440;27;20502;-89
2024/01/13 08:41:04;;;;;;;77.30;41.08;;;4.30;99.90;;;;;;5134129;27;20425;-91
2024/01/13 08:43:30;;;;;;;75.68;42.47;;;4.20;99.90;;;;;;5133847;27;20396;-91
2024/01/13 08:45:56;;;;;;;78.70;43.53;;;4.20;99.90;;;;;;5113392;27;20468;-91
2024/01/13 08:48:22;;;;;;;81.90;45.15;;;4.20;99.90;;;;;;5127984;27;20886;-91
2024/01/13 08:50:47;;;;;;;79.40;46.08;;;4.20;99.90;;;;;;5123470;27;20433;-89
2024/01/13 08:53:13;;;;;;;83.23;47.77;;;4.40;99.90;;;;;;5135123;27;20405;-90
2024/01/13 08:55:39;;;;;;;82.93;49.30;;;4.30;99.90;;;;;;5133394;27;20404;-89
2024/01/13 08:58:04;;;;;;;87.43;51.53;;;4.30;99.90;;;;;;5150444;27;20428;-90
2024/01/13 09:00:32;;;;;;;88.77;52.07;;;4.30;99.90;;;;;;5134758;27;20692;-91
2024/01/13 09:02:58;;;;;;;85.53;52.30;;;4.30;99.90;;;;;;5122852;27;20405;-91
2024/01/13 09:05:24;;;;;;;86.82;51.53;;;4.50;99.90;;;;;;5127403;27;20966;-88
2024/01/13 09:07:49;;;;;;;90.82;52.85;;;4.30;99.90;;;;;;5112586;27;20403;-90
2024/01/13 09:10:15;;;;;;;93.53;53.85;;;4.30;99.90;;;;;;5133027;27;20388;-89
2024/01/13 09:12:41;;;;;;;84.35;52.05;;;4.40;99.90;;;;;;5116715;27;20395;-89
2024/01/13 09:15:09;;;;;;;86.00;52.67;;;4.30;99.90;;;;;;5123792;27;20615;-90
2024/01/13 09:17:36;;;;;;;84.53;51.42;;;4.30;99.90;;;;;;5126298;27;20433;-90
2024/01/13 09:20:02;;;;;;;79.60;51.40;;;4.30;99.90;;;;;;5113658;27;20419;-89
2024/01/13 09:22:27;;;;;;;80.63;50.42;;;4.30;99.90;;;;;;5132919;27;20813;-90
2024/01/13 09:24:53;;;;;;;79.23;49.97;;;4.30;99.90;;;;;;5114781;27;20399;-90
2024/01/13 09:27:18;;;;;;;75.90;48.53;;;4.30;99.90;;;;;;5141920;27;20393;-90
2024/01/13 09:29:47;;;;;;;78.95;51.42;;;4.40;99.90;;;;;;5125062;27;20395;-89
2024/01/13 09:32:13;;;;;;;74.37;49.97;;;4.40;99.90;;;;;;5114494;27;20413;-88
2024/01/13 09:34:38;;;;;;;70.97;48.70;;;4.40;99.90;;;;;;5133288;27;20514;-92
2024/01/13 09:37:05;;;;;;;74.88;50.22;;;4.40;99.90;;;;;;5113758;27;20434;-91
2024/01/13 09:39:30;;;;;;;71.63;48.95;;;4.40;99.90;;;;;;5125985;27;20732;-92
2024/01/13 09:41:58;;;;;;;70.82;48.65;;;4.40;99.90;;;;;;5123524;27;20394;-90
2024/01/13 09:44:26;;;;;;;70.38;47.28;;;4.60;99.90;;;;;;5115992;27;20393;-91
2024/01/13 09:46:53;;;;;;;70.70;45.55;;;4.30;99.90;;;;;;5131879;27;20854;-91
2024/01/13 09:49:20;;;;;;;68.43;44.83;;;4.70;99.90;;;;;;5112753;27;20516;-90
2024/01/13 09:51:46;;;;;;;74.37;46.43;;;4.40;99.90;;;;;;5111657;27;20401;-89
2024/01/13 09:54:18;;;;;;;63.50;42.17;;;4.30;99.90;;;;;;5121904;27;20399;-89
2024/01/13 09:56:46;;;;;;;63.80;41.85;;;4.40;99.90;;;;;;5126368;27;20878;-90
2024/01/13 09:59:12;;;;;;;59.63;39.78;;;4.40;99.90;;;;;;5112160;27;20405;-92
2024/01/13 10:01:39;;;;;;;54.97;36.63;;;4.60;99.90;;;;;;5132360;27;20476;-92
2024/01/13 10:04:04;;;;;;;55.10;36.72;;;4.70;99.90;;;;;;5131257;27;20393;-89
2024/01/13 10:06:35;;;;;;;56.03;36.55;;;4.60;99.90;;;;;;5119712;27;20414;-89
2024/01/13 10:09:01;;;;;;;54.15;35.47;;;4.70;99.90;;;;;;5119208;27;20907;-90
2024/01/13 10:11:28;;;;;;;50.60;33.35;;;4.70;99.90;;;;;;5128801;27;20940;-91
2024/01/13 10:14:13;;;;;;;54.72;32.67;;;4.60;99.90;;;;;;5111689;27;20409;-91
2024/01/13 10:16:39;;;;;;;55.40;31.20;;;4.90;99.90;;;;;;5090630;28;20455;-90
2024/01/13 10:19:07;;;;;;;53.72;31.73;;;4.80;99.90;;;;;;5141960;27;20402;-91
2024/01/13 10:21:33;;;;;;;53.50;30.80;;;4.90;99.90;;;;;;5111458;27;20398;-90
2024/01/13 10:24:00;;;;;;;52.55;28.42;;;4.80;99.90;;;;;;5135103;27;20927;-90
2024/01/13 10:26:29;;;;;;;50.03;27.33;;;4.80;99.90;;;;;;5129816;27;20408;-92
2024/01/13 10:28:55;;;;;;;53.77;27.97;;;4.80;99.90;;;;;;5111318;27;20866;-92
2024/01/13 10:31:21;;;;;;;50.95;27.30;;;4.80;99.90;;;;;;5110872;27;20412;-90
2024/01/13 10:33:48;;;;;;;52.35;27.08;;;4.80;99.90;;;;;;5124237;27;20791;-91
2024/01/13 10:36:16;;;;;;;54.70;27.13;;;4.80;99.90;;;;;;5123282;27;20507;-91
2024/01/13 10:38:43;;;;;;;48.40;26.90;;;4.90;99.90;;;;;;5114615;27;20396;-91
2024/01/13 10:41:09;;;;;;;47.00;26.52;;;4.90;99.90;;;;;;5131759;27;20422;-90
2024/01/13 10:43:40;;;;;;;52.42;27.58;;;4.90;99.90;;;;;;5111155;27;20473;-91
2024/01/13 10:46:13;;;;;;;51.58;28.45;;;4.90;99.90;;;;;;5125279;27;20405;-91
2024/01/13 10:48:48;;;;;;;51.93;28.43;;;5.00;99.90;;;;;;5120242;27;20395;-91
2024/01/13 10:51:33;;;;;;;49.85;27.17;;;5.00;99.90;;;;;;5117863;27;20393;-96
2024/01/13 10:54:00;;;;;;;49.15;26.48;;;5.10;99.90;;;;;;5126293;27;20411;-91
2024/01/13 10:56:30;;;;;;;45.85;25.92;;;5.20;99.90;;;;;;5091427;27;20452;-90
2024/01/13 10:58:58;;;;;;;54.45;25.83;;;5.10;99.90;;;;;;5131185;27;20404;-91
2024/01/13 11:01:24;;;;;;;49.45;24.45;;;5.40;99.90;;;;;;5114321;27;20445;-91
2024/01/13 11:03:51;;;;;;;42.85;21.45;;;5.20;99.90;;;;;;5122102;27;20733;-93
2024/01/13 11:06:17;;;;;;;43.75;21.83;;;5.20;99.90;;;;;;5123031;27;20394;-91
2024/01/13 11:08:44;;;;;;;42.38;21.45;;;5.40;99.90;;;;;;5112417;27;20394;-94
2024/01/13 11:11:12;;;;;;;42.10;20.47;;;5.30;99.90;;;;;;5131393;27;20392;-91
2024/01/13 11:13:42;;;;;;;39.78;19.88;;;5.30;99.90;;;;;;5112148;27;20425;-90
2024/01/13 11:16:14;;;;;;;40.42;20.25;;;5.30;99.90;;;;;;5124426;27;20431;-91
2024/01/13 11:18:49;;;;;;;40.22;18.90;;;5.50;99.90;;;;;;5120369;27;20897;-90
2024/01/13 11:21:17;;;;;;;39.05;19.77;;;5.50;99.90;;;;;;5116919;27;20854;-91
2024/01/13 11:23:57;;;;;;;39.85;19.67;;;5.30;99.90;;;;;;5128710;27;20439;-90
2024/01/13 11:26:32;;;;;;;38.30;18.73;;;5.40;99.90;;;;;;5109842;27;20402;-90
2024/01/13 11:28:58;;;;;;;40.40;18.58;;;5.40;99.90;;;;;;5089409;28;20396;-91
2024/01/13 11:31:37;;;;;;;36.95;17.73;;;5.40;99.90;;;;;;5105858;27;20414;-90
2024/01/13 11:34:06;;;;;;;34.10;16.88;;;5.70;99.90;;;;;;5109279;27;20790;-92
2024/01/13 11:36:38;;;;;;;34.78;16.23;;;5.60;99.90;;;;;;5118033;27;20930;-91
2024/01/13 11:39:05;;;;;;;35.80;16.00;;;5.50;99.90;;;;;;5125840;27;20766;-91
2024/01/13 11:41:41;;;;;;;32.53;15.87;;;5.40;99.90;;;;;;5110020;27;20418;-91
2024/01/13 11:44:08;;;;;;;30.80;14.48;;;5.60;99.90;;;;;;5109890;27;20430;-90
2024/01/13 11:46:44;;;;;;;28.52;14.20;;;5.70;99.90;;;;;;5125900;27;20446;-91
2024/01/13 11:49:11;;;;;;;30.98;14.07;;;5.50;99.90;;;;;;5117273;27;20402;-90
2024/01/13 11:51:59;;;;;;;26.40;12.80;;;5.50;99.90;;;;;;5117811;27;20852;-91
2024/01/13 11:54:27;;;;;;;27.60;12.77;;;5.50;99.90;;;;;;5124310;27;20441;-93
2024/01/13 11:56:53;;;;;;;29.83;12.57;;;5.80;99.90;;;;;;5111021;27;20422;-90
2024/01/13 11:59:20;;;;;;;23.80;11.37;;;5.70;99.90;;;;;;5130231;27;20887;-92
2024/01/13 12:01:46;;;;;;;25.98;11.07;;;5.60;99.90;;;;;;5113097;27;20410;-93
2024/01/13 12:04:14;;;;;;;24.58;9.88;;;5.60;99.90;;;;;;5121564;27;20430;-93
2024/01/13 12:06:42;;;;;;;20.38;8.77;;;5.90;99.90;;;;;;5139210;27;20426;-93
2024/01/13 12:09:08;;;;;;;19.83;8.25;;;5.70;99.90;;;;;;5112670;27;20397;-93
2024/01/13 12:11:34;;;;;;;21.23;7.95;;;5.90;99.90;;;;;;5130624;27;20413;-91
2024/01/13 12:14:03;;;;;;;20.30;7.50;;;5.70;99.90;;;;;;5129832;27;20397;-91
2024/01/13 12:16:29;;;;;;;16.15;6.43;;;5.70;99.90;;;;;;5115592;28;20422;-90
2024/01/13 12:18:55;;;;;;;17.58;6.65;;;5.70;99.90;;;;;;5118886;27;20450;-91
2024/01/13 12:21:20;;;;;;;14.40;6.25;;;5.90;99.90;;;;;;5130058;27;20389;-92
2024/01/13 12:23:46;;;;;;;14.20;4.95;;;5.70;99.90;;;;;;5129462;27;20941;-93
2024/01/13 12:26:12;;;;;;;12.98;4.90;;;5.60;99.90;;;;;;5129349;27;20401;-94
2024/01/13 12:28:40;;;;;;;10.48;3.80;;;5.90;99.90;;;;;;5115197;28;20447;-91
2024/01/13 12:31:06;;;;;;;10.93;3.38;;;5.80;99.90;;;;;;5119733;27;20954;-92
2024/01/13 12:33:32;;;;;;;9.50;3.20;;;5.80;99.90;;;;;;5130137;27;20403;-91
2024/01/13 12:36:02;;;;;;;10.37;3.10;;;5.70;99.90;;;;;;5129201;27;20397;-91
2024/01/13 12:38:31;;;;;;;7.40;2.80;;;6.00;99.90;;;;;;5109331;28;20402;-90
2024/01/13 12:40:58;;;;;;;8.90;2.72;;;6.00;99.90;;;;;;5109248;28;20406;-93
2024/01/13 12:43:25;;;;;;;11.07;3.03;;;6.10;99.90;;;;;;5109136;28;20480;-90
2024/01/13 12:45:58;;;;;;;11.55;3.20;;;6.10;99.90;;;;;;5134051;27;20393;-91
2024/01/13 12:48:25;;;;;;;11.30;2.78;;;6.00;99.90;;;;;;5125931;27;20411;-90
2024/01/13 12:50:51;;;;;;;10.55;2.83;;;6.00;99.90;;;;;;5108998;28;20781;-95
2024/01/13 12:53:27;;;;;;;8.27;2.65;;;6.00;99.90;;;;;;5128917;27;20404;-91